Time;durP1;ratioP1;P1;durP2;ratioP2;P2;SDS_P1;SDS_P2;PMS_P1;PMS_P2;Temp;Humidity;BMP_temperature;BMP_pressure;BME280_temperature;BME280_humidity;BME280_pressure;Samples;Min_cycle;Max_cycle;Signal;HPM_P1;HPM_P2
2022/06/28 00:01:54;;;;;;;5.03;2.53;;;;;;;22.29;71.04;99752.91;5030144;28;20822;-87
2022/06/28 00:04:20;;;;;;;4.25;2.83;;;;;;;22.47;70.60;99759.84;5031426;28;20041;-87
2022/06/28 00:06:47;;;;;;;3.25;2.42;;;;;;;22.51;69.95;99765.91;5031665;28;20518;-87
2022/06/28 00:09:14;;;;;;;4.75;2.92;;;;;;;22.41;69.98;99745.94;5035515;28;20042;-87
2022/06/28 00:11:41;;;;;;;3.42;2.00;;;;;;;22.23;70.05;99729.13;5028532;28;20064;-86
2022/06/28 00:16:04;;;;;;;5.10;3.03;;;;;;;22.46;69.57;99741.13;5026936;28;20033;-87
2022/06/28 00:16:52;;;;;;;6.90;3.65;;;;;;;22.38;70.04;99741.63;5028115;28;20407;-87
2022/06/28 00:19:18;;;;;;;5.10;3.13;;;;;;;22.37;70.46;99753.34;5044923;28;20090;-87
2022/06/28 00:21:43;;;;;;;3.88;2.65;;;;;;;22.21;71.49;99756.09;5036169;28;20040;-87
2022/06/28 00:24:09;;;;;;;4.63;2.80;;;;;;;22.16;71.41;99736.72;5046682;28;20511;-87
2022/06/28 00:26:34;;;;;;;4.65;2.85;;;;;;;22.11;71.45;99714.66;5047074;28;20039;-87
2022/06/28 00:29:00;;;;;;;3.75;2.65;;;;;;;22.17;71.31;99742.00;5045849;28;20083;-88
2022/06/28 00:31:25;;;;;;;5.28;3.47;;;;;;;22.31;70.70;99735.78;5047387;28;20411;-87
2022/06/28 00:33:51;;;;;;;4.22;3.13;;;;;;;22.30;70.08;99733.16;5048030;28;20071;-87
2022/06/28 00:36:17;;;;;;;4.13;2.47;;;;;;;22.38;70.05;99735.41;5047151;28;20033;-86
2022/06/28 00:38:42;;;;;;;4.38;2.80;;;;;;;22.13;70.23;99702.84;5047535;28;20708;-86
2022/06/28 00:41:08;;;;;;;4.55;2.90;;;;;;;22.19;70.39;99736.53;5046994;28;20033;-87
2022/06/28 00:43:35;;;;;;;4.00;2.47;;;;;;;22.15;70.53;99740.34;5046413;28;20774;-87
2022/06/28 00:46:00;;;;;;;4.95;2.90;;;;;;;22.20;70.13;99719.47;5047277;28;20120;-88
2022/06/28 00:48:27;;;;;;;4.03;2.80;;;;;;;22.16;70.42;99720.59;5026986;28;20120;-89
2022/06/28 00:50:53;;;;;;;3.45;2.60;;;;;;;22.18;70.46;99724.94;5040947;28;20040;-89
2022/06/28 00:53:19;;;;;;;4.13;3.47;;;;;;;22.17;70.91;99741.16;5046249;28;20053;-86
2022/06/28 00:55:47;;;;;;;3.85;2.78;;;;;;;21.87;70.91;99717.91;5046942;28;20047;-85
2022/06/28 00:58:14;;;;;;;4.25;2.67;;;;;;;21.49;72.59;99709.44;5045279;28;20032;-87
2022/06/28 01:00:43;;;;;;;6.00;3.92;;;;;;;21.34;73.53;99728.22;5046198;28;20036;-87
2022/06/28 01:03:14;;;;;;;4.82;2.65;;;;;;;21.21;74.57;99724.50;5047594;28;20036;-87
2022/06/28 01:05:41;;;;;;;5.20;3.13;;;;;;;21.45;73.94;99732.94;5037270;28;20061;-88
2022/06/28 01:08:07;;;;;;;4.55;2.70;;;;;;;21.32;74.20;99713.16;5045821;28;20037;-87
2022/06/28 01:10:34;;;;;;;4.22;2.83;;;;;;;21.49;73.57;99726.47;5046628;28;20430;-87
2022/06/28 01:13:00;;;;;;;3.65;2.50;;;;;;;21.56;73.19;99737.69;5046342;28;20546;-86
2022/06/28 01:15:26;;;;;;;6.55;3.75;;;;;;;21.39;72.36;99703.78;5046426;28;20145;-86
2022/06/28 01:17:52;;;;;;;5.55;3.20;;;;;;;21.12;74.30;99720.56;5046350;28;20040;-86
2022/06/28 01:20:18;;;;;;;4.25;3.28;;;;;;;21.18;73.60;99703.22;5028155;28;20034;-86
2022/06/28 01:22:44;;;;;;;5.43;4.00;;;;;;;21.02;73.45;99708.63;5031821;28;20044;-87
2022/06/28 01:25:11;;;;;;;3.80;2.88;;;;;;;21.05;72.79;99682.53;5027133;28;20044;-87
2022/06/28 01:27:37;;;;;;;4.50;2.10;;;;;;;21.26;72.92;99712.56;5026115;28;20435;-86
2022/06/28 01:30:07;;;;;;;5.32;2.75;;;;;;;21.44;72.28;99742.81;5027249;28;20033;-86
2022/06/28 01:32:33;;;;;;;4.60;2.78;;;;;;;21.45;72.63;99732.94;5025486;28;20040;-86
2022/06/28 01:35:00;;;;;;;4.75;2.45;;;;;;;21.49;72.84;99733.59;5034146;28;20021;-86
2022/06/28 01:37:26;;;;;;;4.50;2.60;;;;;;;21.38;72.46;99707.41;5039114;28;20183;-86
2022/06/28 01:39:52;;;;;;;4.65;2.92;;;;;;;21.35;72.46;99708.47;5025861;28;20859;-87
2022/06/28 01:42:17;;;;;;;3.92;2.67;;;;;;;21.50;72.25;99730.88;5026730;28;20400;-88
2022/06/28 01:44:45;;;;;;;5.60;2.60;;;;;;;21.59;71.26;99716.88;5027015;28;20025;-89
2022/06/28 01:47:12;;;;;;;5.25;2.90;;;;;;;21.69;71.37;99733.31;5027070;28;20045;-87
2022/06/28 01:49:38;;;;;;;4.40;2.97;;;;;;;21.59;72.05;99730.31;5026697;28;20033;-89
2022/06/28 01:52:04;;;;;;;5.72;3.13;;;;;;;21.61;71.93;99730.22;5032149;28;20418;-89
2022/06/28 01:54:29;;;;;;;6.45;2.97;;;;;;;21.50;71.89;99703.19;5043932;28;20059;-89
2022/06/28 01:56:55;;;;;;;3.63;2.53;;;;;;;21.30;72.75;99732.00;5034068;28;20033;-88
2022/06/28 01:59:22;;;;;;;5.60;3.33;;;;;;;21.07;72.86;99699.38;5045149;28;20119;-90
2022/06/28 02:01:47;;;;;;;15.68;3.92;;;;;;;21.20;73.46;99750.47;5040774;28;20191;-91
2022/06/28 02:04:28;;;;;;;4.32;2.95;;;;;;;20.86;73.45;99701.47;5026515;28;20116;-87
2022/06/28 02:06:55;;;;;;;4.30;3.17;;;;;;;20.81;74.16;99716.97;5039792;28;20123;-89
2022/06/28 02:09:21;;;;;;;3.75;2.80;;;;;;;20.92;74.23;99735.13;5046733;28;20043;-89
2022/06/28 02:11:47;;;;;;;11.10;4.40;;;;;;;21.06;72.15;99711.06;5042800;28;20025;-89
2022/06/28 02:14:12;;;;;;;4.57;2.90;;;;;;;20.81;72.83;99706.25;5026329;28;20037;-87
2022/06/28 02:16:38;;;;;;;4.70;3.17;;;;;;;20.71;73.01;99711.28;5041806;28;20052;-88
2022/06/28 02:19:04;;;;;;;3.95;3.05;;;;;;;20.54;72.62;99701.47;5027109;28;20531;-88
2022/06/28 02:21:37;;;;;;;3.92;2.38;;;;;;;20.74;72.33;99728.97;5027210;28;20065;-87
2022/06/28 02:24:04;;;;;;;5.50;3.22;;;;;;;20.79;72.86;99734.09;5038657;28;20039;-89
2022/06/28 02:26:34;;;;;;;3.85;2.10;;;;;;;20.78;72.41;99722.50;5039066;28;20037;-90
2022/06/28 02:29:00;;;;;;;3.45;2.38;;;;;;;20.73;72.35;99706.69;5024750;28;20488;-88
2022/06/28 02:31:27;;;;;;;4.18;2.08;;;;;;;20.62;72.46;99719.81;5025162;28;20092;-87
2022/06/28 02:33:54;;;;;;;3.72;2.55;;;;;;;20.69;72.39;99739.97;5030069;28;20025;-88
2022/06/28 02:41:48;;;;;;;7.32;2.83;;;;;;;20.39;71.54;99729.13;5050161;28;20510;-87
2022/06/28 02:44:16;;;;;;;3.17;1.90;;;;;;;20.67;71.15;99744.56;5042671;28;20036;-87
2022/06/28 02:46:42;;;;;;;3.28;2.25;;;;;;;20.62;70.33;99703.72;5050128;28;20056;-86
2022/06/28 02:49:08;;;;;;;3.78;2.33;;;;;;;20.96;69.52;99731.31;5047572;28;20043;-86
2022/06/28 02:51:33;;;;;;;3.33;2.33;;;;;;;21.33;68.89;99744.41;5032720;28;20029;-87
2022/06/28 02:53:59;;;;;;;7.82;2.47;;;;;;;21.20;68.75;99745.13;5047142;28;20295;-88
2022/06/28 02:56:25;;;;;;;2.95;1.90;;;;;;;21.09;68.31;99710.88;5049696;28;20116;-86
2022/06/28 02:58:50;;;;;;;3.45;2.50;;;;;;;21.38;67.77;99745.88;5049614;28;20029;-87
2022/06/28 03:01:16;;;;;;;2.53;1.65;;;;;;;21.17;67.72;99725.66;5034250;28;20144;-87
2022/06/28 03:03:41;;;;;;;3.17;1.98;;;;;;;21.25;67.04;99699.25;5033882;28;20037;-86
2022/06/28 03:06:07;;;;;;;3.83;2.47;;;;;;;21.51;66.22;99723.69;5049660;28;20029;-87
2022/06/28 03:08:33;;;;;;;6.78;3.58;;;;;;;21.49;66.74;99713.06;5048390;28;20519;-87
2022/06/28 03:10:59;;;;;;;3.67;2.55;;;;;;;21.75;68.01;99738.31;5047551;28;20106;-88
2022/06/28 03:13:25;;;;;;;4.80;2.50;;;;;;;21.57;68.62;99724.19;5046034;28;20422;-89
2022/06/28 03:15:50;;;;;;;5.22;3.33;;;;;;;21.76;68.98;99741.84;5049214;28;20033;-87
2022/06/28 03:18:18;;;;;;;3.65;2.40;;;;;;;21.52;68.82;99710.19;5048957;28;20066;-87
2022/06/28 03:20:44;;;;;;;4.90;2.20;;;;;;;21.75;69.45;99743.69;5040014;28;20040;-87
2022/06/28 03:23:10;;;;;;;4.07;3.22;;;;;;;21.79;69.66;99750.56;5048648;28;20033;-87
2022/06/28 03:25:36;;;;;;;3.65;2.55;;;;;;;21.44;70.26;99721.34;5046693;28;20505;-88
2022/06/28 03:28:03;;;;;;;3.00;2.05;;;;;;;21.39;70.40;99719.88;5031769;28;20049;-89
2022/06/28 03:30:29;;;;;;;3.55;2.53;;;;;;;21.46;72.24;99758.81;5029118;28;20036;-88
2022/06/28 03:32:54;;;;;;;5.00;3.13;;;;;;;21.16;72.83;99708.69;5047485;28;20033;-87
2022/06/28 03:35:20;;;;;;;4.45;2.78;;;;;;;21.32;73.28;99714.03;5048803;28;20041;-86
2022/06/28 03:37:45;;;;;;;3.85;2.33;;;;;;;21.41;73.84;99743.00;5048462;28;20037;-86
2022/06/28 03:40:11;;;;;;;4.15;2.45;;;;;;;21.62;73.13;99748.06;5048216;28;20036;-86
2022/06/28 03:42:36;;;;;;;2.78;2.47;;;;;;;21.58;73.38;99742.03;5048753;28;20498;-86
2022/06/28 03:45:03;;;;;;;5.05;3.13;;;;;;;21.33;73.60;99710.38;5048082;28;20454;-86
2022/06/28 03:47:29;;;;;;;3.38;2.65;;;;;;;21.21;75.15;99717.34;5039347;28;20036;-86
2022/06/28 03:49:54;;;;;;;4.97;2.58;;;;;;;21.46;75.24;99758.81;5048005;28;20029;-87
2022/06/28 03:52:28;;;;;;;4.72;2.67;;;;;;;21.37;74.63;99735.22;5037002;28;20040;-87
2022/06/28 03:54:55;;;;;;;4.00;2.83;;;;;;;21.36;74.47;99728.13;5041039;28;20050;-85
2022/06/28 03:57:21;;;;;;;4.07;2.92;;;;;;;21.44;74.41;99739.25;5026585;28;20525;-85
2022/06/28 03:59:47;;;;;;;3.67;2.40;;;;;;;21.40;74.40;99746.63;5028835;28;20075;-86
2022/06/28 04:02:12;;;;;;;4.53;2.53;;;;;;;21.57;74.42;99769.81;5045178;28;20094;-85
2022/06/28 04:04:38;;;;;;;5.18;3.13;;;;;;;21.72;74.15;99759.09;5042647;28;20106;-85
2022/06/28 04:07:03;;;;;;;5.28;3.08;;;;;;;21.74;74.04;99762.56;5028062;28;20035;-85
2022/06/28 04:09:29;;;;;;;5.25;2.97;;;;;;;21.77;73.74;99754.34;5034069;28;20460;-87
2022/06/28 04:11:54;;;;;;;6.80;4.45;;;;;;;21.68;74.37;99736.97;5032021;28;20139;-86
2022/06/28 04:14:20;;;;;;;3.85;2.55;;;;;;;21.85;75.58;99760.09;5025450;28;20037;-86
2022/06/28 04:16:45;;;;;;;3.58;2.25;;;;;;;22.03;74.21;99749.16;5028773;28;20029;-86
2022/06/28 04:19:11;;;;;;;3.78;2.45;;;;;;;22.10;74.15;99753.22;5051353;28;20060;-86
2022/06/28 04:21:36;;;;;;;4.88;3.28;;;;;;;22.12;72.66;99729.81;5045454;28;20029;-85
2022/06/28 04:24:02;;;;;;;5.10;3.25;;;;;;;22.09;73.33;99756.84;5042863;28;20039;-85
2022/06/28 04:26:27;;;;;;;7.45;3.95;;;;;;;22.20;72.67;99762.44;5053808;28;20087;-85
2022/06/28 04:28:53;;;;;;;3.85;2.85;;;;;;;22.08;73.58;99765.88;5050804;28;20602;-84
2022/06/28 04:31:18;;;;;;;4.22;2.60;;;;;;;21.97;73.72;99751.28;5035137;28;20030;-85
2022/06/28 04:33:45;;;;;;;4.97;2.95;;;;;;;22.18;72.84;99745.53;5042643;28;20049;-86
2022/06/28 04:36:10;;;;;;;5.45;4.45;;;;;;;22.09;73.05;99746.09;5041284;28;20037;-84
2022/06/28 04:38:36;;;;;;;6.32;4.15;;;;;;;22.34;72.98;99775.03;5047888;28;20098;-85
2022/06/28 04:41:01;;;;;;;6.07;4.32;;;;;;;22.48;71.84;99766.13;5047848;28;20025;-87
2022/06/28 04:43:27;;;;;;;6.72;4.20;;;;;;;22.46;71.67;99763.53;5045974;28;20033;-85
2022/06/28 04:45:52;;;;;;;6.10;3.65;;;;;;;22.52;70.04;99733.56;5046449;28;20067;-87
2022/06/28 04:48:18;;;;;;;5.97;3.65;;;;;;;22.95;68.99;99746.03;5045621;28;20156;-84
2022/06/28 04:50:43;;;;;;;6.50;3.60;;;;;;;23.32;68.49;99767.00;5048434;28;20040;-85
2022/06/28 04:53:09;;;;;;;9.07;4.53;;;;;;;23.67;67.02;99775.38;5047154;28;20106;-87
2022/06/28 04:55:35;;;;;;;5.13;2.72;;;;;;;23.73;63.27;99777.66;5047350;28;20424;-88
2022/06/28 04:58:00;;;;;;;6.15;3.47;;;;;;;23.88;62.86;99791.03;5045509;28;20029;-87
2022/06/28 05:00:28;;;;;;;5.28;3.55;;;;;;;23.85;62.69;99770.59;5046243;28;20033;-86
2022/06/28 05:02:54;;;;;;;3.30;2.42;;;;;;;24.11;62.65;99789.44;5048290;28;20024;-86
2022/06/28 05:05:19;;;;;;;5.93;3.63;;;;;;;24.28;62.61;99764.00;5047593;28;20032;-87
2022/06/28 05:07:45;;;;;;;10.13;4.43;;;;;;;24.19;64.05;99773.63;5047970;28;20036;-88
2022/06/28 05:10:11;;;;;;;6.43;4.25;;;;;;;23.99;63.51;99763.38;5031199;28;20037;-87
2022/06/28 05:12:36;;;;;;;6.05;3.90;;;;;;;24.29;63.80;99779.22;5048964;28;20033;-87
2022/06/28 05:15:02;;;;;;;6.28;4.40;;;;;;;24.48;64.95;99782.34;5047424;28;20049;-89
2022/06/28 05:17:27;;;;;;;4.65;3.10;;;;;;;24.75;63.55;99792.13;5047381;28;20071;-89
2022/06/28 05:19:54;;;;;;;7.72;4.38;;;;;;;24.52;60.68;99784.81;5046603;28;20333;-88
2022/06/28 05:22:19;;;;;;;6.07;3.40;;;;;;;24.65;61.44;99774.88;5046703;28;20033;-89
2022/06/28 05:24:45;;;;;;;5.05;3.45;;;;;;;24.77;61.42;99786.63;5047649;28;20037;-88
2022/06/28 05:27:10;;;;;;;4.18;2.55;;;;;;;24.71;63.28;99754.72;5047354;28;20449;-89
2022/06/28 05:29:36;;;;;;;4.60;3.65;;;;;;;24.97;61.92;99771.66;5046778;28;20040;-89
2022/06/28 05:32:02;;;;;;;5.45;3.50;;;;;;;25.15;62.34;99807.25;5046848;28;20044;-88
2022/06/28 05:34:28;;;;;;;5.22;3.33;;;;;;;24.88;62.78;99789.38;5045886;28;20021;-89
2022/06/28 05:36:53;;;;;;;5.35;3.45;;;;;;;25.10;62.01;99752.72;5047117;28;20797;-89
2022/06/28 05:39:19;;;;;;;3.47;2.58;;;;;;;25.27;63.98;99763.13;5046437;28;20450;-89
2022/06/28 05:41:45;;;;;;;4.85;3.55;;;;;;;25.71;61.00;99756.19;5046814;28;20025;-89
2022/06/28 05:44:12;;;;;;;4.43;3.05;;;;;;;25.97;60.97;99791.16;5034451;28;20029;-89
2022/06/28 05:46:39;;;;;;;4.55;3.42;;;;;;;26.47;59.04;99798.13;5034593;28;20746;-87
2022/06/28 05:49:07;;;;;;;5.72;4.15;;;;;;;26.77;58.71;99801.09;5026251;28;20371;-89
2022/06/28 05:51:33;;;;;;;6.63;3.47;;;;;;;26.69;56.63;99797.28;5032208;28;20086;-89
2022/06/28 05:53:59;;;;;;;3.47;2.55;;;;;;;27.04;58.39;99796.25;5045411;28;20061;-88
2022/06/28 05:56:25;;;;;;;5.53;2.72;;;;;;;27.21;57.03;99776.75;5044202;28;20585;-89
2022/06/28 05:58:50;;;;;;;4.30;2.22;;;;;;;27.23;56.78;99791.03;5043289;28;20137;-89
2022/06/28 06:01:16;;;;;;;4.82;3.33;;;;;;;27.78;55.85;99790.13;5034416;28;20035;-89
2022/06/28 06:03:42;;;;;;;5.95;3.03;;;;;;;27.63;54.13;99774.16;5036459;28;20037;-90
2022/06/28 06:06:07;;;;;;;4.57;2.72;;;;;;;28.14;52.80;99774.38;5036953;28;20503;-90
2022/06/28 06:08:35;;;;;;;3.85;2.53;;;;;;;28.40;50.99;99791.94;5036653;28;20039;-89
2022/06/28 06:11:02;;;;;;;5.07;2.33;;;;;;;28.33;49.83;99754.63;5031887;28;20032;-88
2022/06/28 06:13:27;;;;;;;3.25;1.83;;;;;;;28.28;47.31;99778.59;5049379;28;20036;-87
2022/06/28 06:15:53;;;;;;;3.25;1.83;;;;;;;28.31;48.36;99762.91;5037176;28;20029;-89
2022/06/28 06:18:19;;;;;;;4.55;2.05;;;;;;;28.45;48.74;99771.69;5040235;28;20216;-91
2022/06/28 06:20:44;;;;;;;3.90;2.28;;;;;;;28.30;45.83;99739.50;5038130;28;20079;-90
2022/06/28 06:23:10;;;;;;;2.85;1.95;;;;;;;28.53;49.29;99764.59;5039747;28;20078;-88
2022/06/28 06:25:35;;;;;;;4.10;2.30;;;;;;;28.52;47.01;99778.28;5038948;28;20049;-89
2022/06/28 06:28:01;;;;;;;3.20;2.28;;;;;;;28.83;50.89;99762.84;5036355;28;20032;-88
2022/06/28 06:30:27;;;;;;;3.72;1.75;;;;;;;28.97;46.64;99764.31;5046216;28;20060;-88
2022/06/28 06:32:52;;;;;;;4.60;3.50;;;;;;;29.29;46.32;99783.13;5050243;28;20040;-88
2022/06/28 06:35:18;;;;;;;2.28;1.77;;;;;;;29.25;45.84;99757.22;5044111;28;20726;-86
2022/06/28 06:37:43;;;;;;;2.35;1.48;;;;;;;29.54;44.96;99780.84;5050151;28;20116;-91
2022/06/28 06:40:09;;;;;;;3.10;1.83;;;;;;;29.55;47.51;99766.25;5043053;28;20034;-90
2022/06/28 06:42:35;;;;;;;2.88;2.20;;;;;;;29.83;45.71;99780.00;5035379;28;20112;-92
2022/06/28 06:45:00;;;;;;;3.67;2.90;;;;;;;29.97;45.21;99765.09;5038368;28;20036;-90
2022/06/28 06:47:27;;;;;;;3.42;2.03;;;;;;;29.94;44.86;99768.97;5036513;28;20342;-91
2022/06/28 06:49:52;;;;;;;4.13;2.80;;;;;;;30.32;42.33;99782.59;5042363;28;20036;-89
2022/06/28 06:52:18;;;;;;;3.58;2.10;;;;;;;30.40;41.74;99769.16;5042029;28;20037;-88
2022/06/28 06:54:43;;;;;;;3.88;1.90;;;;;;;30.25;42.76;99760.56;5049161;28;20053;-90
2022/06/28 06:57:10;;;;;;;3.28;2.00;;;;;;;30.42;42.51;99782.59;5038556;28;20068;-89
2022/06/28 06:59:35;;;;;;;3.75;2.15;;;;;;;30.28;43.68;99776.59;5039828;28;20427;-90
2022/06/28 07:02:01;;;;;;;4.10;1.95;;;;;;;30.48;43.25;99777.41;5042719;28;20029;-90
2022/06/28 07:04:26;;;;;;;2.92;1.90;;;;;;;29.95;42.19;99788.84;5059906;28;20059;-90
2022/06/28 07:06:52;;;;;;;3.10;2.00;;;;;;;29.84;46.49;99797.16;5047721;28;20040;-88
2022/06/28 07:09:18;;;;;;;2.65;1.60;;;;;;;29.87;44.94;99764.25;5044335;28;20495;-87
2022/06/28 07:11:44;;;;;;;3.28;2.17;;;;;;;29.84;44.78;99750.94;5036901;28;20443;-86
2022/06/28 07:14:09;;;;;;;2.78;1.83;;;;;;;30.24;43.99;99779.75;5046866;28;20040;-87
2022/06/28 07:16:35;;;;;;;2.72;1.88;;;;;;;29.82;43.96;99741.06;5046458;28;20116;-87
2022/06/28 07:19:00;;;;;;;3.72;1.90;;;;;;;29.87;44.79;99740.63;5047146;28;20045;-88
2022/06/28 07:21:27;;;;;;;3.28;2.08;;;;;;;29.81;43.17;99763.84;5046860;28;20545;-87
2022/06/28 07:23:53;;;;;;;6.05;2.85;;;;;;;29.74;43.45;99742.78;5046680;28;20124;-87
2022/06/28 07:26:18;;;;;;;2.65;1.63;;;;;;;29.59;42.99;99736.94;5046168;28;20111;-87
2022/06/28 07:28:45;;;;;;;3.15;1.95;;;;;;;29.57;43.35;99757.97;5047156;28;20039;-86
2022/06/28 07:31:11;;;;;;;2.83;2.22;;;;;;;29.40;42.31;99760.38;5048225;28;20028;-88
2022/06/28 07:33:36;;;;;;;3.65;2.47;;;;;;;29.44;42.68;99756.41;5048542;28;20040;-89
2022/06/28 07:36:05;;;;;;;3.30;2.53;;;;;;;29.77;43.06;99737.06;5047634;28;20032;-89
2022/06/28 07:38:31;;;;;;;2.70;1.80;;;;;;;30.04;39.95;99727.28;5048418;28;20190;-89
2022/06/28 07:40:57;;;;;;;3.13;1.95;;;;;;;30.91;39.81;99733.34;5047725;28;20239;-90
2022/06/28 07:43:24;;;;;;;4.47;1.70;;;;;;;31.90;36.28;99759.66;5045933;28;20721;-89
2022/06/28 07:45:51;;;;;;;4.75;2.63;;;;;;;32.62;35.35;99760.28;5048539;28;20029;-89
2022/06/28 07:48:18;;;;;;;4.32;2.28;;;;;;;33.05;33.67;99743.06;5048839;28;20784;-90
2022/06/28 07:53:28;;;;;;;2.53;1.77;;;;;;;33.54;34.78;99768.59;5047874;28;20095;-89
2022/06/28 07:55:53;;;;;;;2.88;1.90;;;;;;;33.84;34.94;99758.00;5048290;28;20076;-89
2022/06/28 07:58:18;;;;;;;2.88;1.48;;;;;;;33.53;33.09;99764.13;5048205;28;20039;-88
2022/06/28 08:00:44;;;;;;;3.72;2.15;;;;;;;33.43;32.47;99760.75;5048282;28;20483;-89
2022/06/28 08:03:09;;;;;;;2.35;1.35;;;;;;;33.97;33.05;99767.56;5048634;28;20040;-89
2022/06/28 08:05:35;;;;;;;4.05;1.70;;;;;;;33.28;34.03;99744.13;5046929;28;20032;-88
2022/06/28 08:08:00;;;;;;;2.35;1.60;;;;;;;33.34;33.33;99746.19;5048131;28;20506;-89
2022/06/28 08:10:26;;;;;;;2.17;1.60;;;;;;;33.78;31.81;99733.25;5047319;28;20032;-89
2022/06/28 08:12:52;;;;;;;2.83;1.80;;;;;;;34.24;36.26;99731.63;5047879;28;20060;-89
2022/06/28 08:15:17;;;;;;;9.93;2.75;;;;;;;34.26;31.54;99767.03;5047823;28;20039;-88
2022/06/28 08:17:43;;;;;;;3.25;2.40;;;;;;;34.04;30.90;99750.28;5048387;28;20033;-89
2022/06/28 08:20:09;;;;;;;2.65;1.50;;;;;;;34.08;31.76;99739.88;5047798;28;20518;-89
2022/06/28 08:22:35;;;;;;;3.13;2.00;;;;;;;34.47;30.23;99766.47;5036163;28;20079;-90
2022/06/28 08:25:01;;;;;;;2.13;1.83;;;;;;;34.85;31.00;99768.56;5039251;28;20063;-89
2022/06/28 08:27:26;;;;;;;2.30;1.60;;;;;;;34.08;34.13;99746.19;5037177;28;20048;-90
2022/06/28 08:29:52;;;;;;;3.25;1.88;;;;;;;34.58;31.92;99740.59;5037949;28;20038;-89
2022/06/28 08:32:20;;;;;;;4.00;2.63;;;;;;;34.18;33.54;99721.34;5041506;28;20538;-93
2022/06/28 08:34:46;;;;;;;3.55;2.35;;;;;;;34.49;31.49;99766.28;5042467;28;20029;-89
2022/06/28 08:37:12;;;;;;;3.35;1.90;;;;;;;34.24;31.04;99731.63;5043804;28;20048;-89
2022/06/28 08:39:37;;;;;;;2.40;1.58;;;;;;;34.39;33.79;99750.06;5041471;28;20496;-88
2022/06/28 08:42:04;;;;;;;4.32;2.58;;;;;;;34.57;32.39;99741.59;5043365;28;20138;-90
2022/06/28 08:44:37;;;;;;;4.53;2.78;;;;;;;34.49;31.21;99736.16;5047483;28;20140;-89
2022/06/28 08:47:04;;;;;;;5.57;2.58;;;;;;;35.23;29.64;99757.72;5038576;28;20037;-89
2022/06/28 08:49:42;;;;;;;3.42;1.90;;;;;;;35.23;29.42;99763.19;5043709;28;20098;-91
2022/06/28 08:52:09;;;;;;;2.25;1.52;;;;;;;34.93;32.22;99757.56;5039178;28;20029;-90
2022/06/28 08:54:35;;;;;;;2.50;1.50;;;;;;;35.35;30.67;99736.25;5036225;28;20052;-92
2022/06/28 08:57:05;;;;;;;6.75;3.10;;;;;;;35.75;30.46;99767.13;5026737;28;20319;-90
2022/06/28 08:59:30;;;;;;;2.97;1.83;;;;;;;35.65;29.55;99739.94;5035965;28;20129;-89
2022/06/28 09:01:56;;;;;;;2.50;2.08;;;;;;;35.13;30.00;99717.69;5039819;28;20502;-90
2022/06/28 09:04:21;;;;;;;3.95;2.65;;;;;;;35.45;32.18;99715.78;5036000;28;20419;-90
2022/06/28 09:06:47;;;;;;;5.35;2.35;;;;;;;35.05;30.58;99716.88;5034726;28;20047;-91
2022/06/28 09:09:12;;;;;;;2.85;1.90;;;;;;;35.02;30.03;99751.00;5037780;28;20041;-90
2022/06/28 09:11:43;;;;;;;6.57;5.90;;;;;;;34.27;31.22;99735.06;5036073;28;20029;-89
2022/06/28 09:14:35;;;;;;;122.20;87.30;;;;;;;34.54;31.85;99733.75;5042019;28;20032;-90
2022/06/28 09:17:24;;;;;;;321.45;203.25;;;;;;;34.24;32.69;99725.31;5027453;28;20044;-91
2022/06/28 09:20:04;;;;;;;654.45;332.20;;;;;;;34.47;32.30;99730.03;5026003;28;20584;-91
2022/06/28 09:22:41;;;;;;;22.17;14.68;;;;;;;33.98;33.00;99726.34;5029477;28;20048;-90
2022/06/28 09:25:25;;;;;;;113.03;50.20;;;;;;;34.46;33.68;99731.88;5036353;28;20069;-90
2022/06/28 09:27:58;;;;;;;1085.47;482.25;;;;;;;35.21;34.59;99722.25;5034442;28;20055;-91
2022/06/28 09:30:26;;;;;;;217.43;151.07;;;;;;;34.55;31.18;99722.59;5037453;28;20495;-90
2022/06/28 09:32:52;;;;;;;247.98;150.75;;;;;;;34.17;30.99;99714.19;5038462;28;20283;-91
2022/06/28 09:35:18;;;;;;;41.45;29.02;;;;;;;34.01;33.53;99730.63;5042343;28;20156;-88
2022/06/28 09:37:48;;;;;;;56.13;31.98;;;;;;;33.77;31.44;99729.66;5035370;28;20090;-89
2022/06/28 09:40:29;;;;;;;10.75;8.85;;;;;;;34.61;32.39;99737.47;5038362;28;20033;-90
2022/06/28 09:43:05;;;;;;;53.97;37.75;;;;;;;34.19;31.26;99706.66;5036995;28;20468;-88
2022/06/28 09:45:31;;;;;;;375.63;247.82;;;;;;;34.19;31.47;99700.31;5036219;28;20032;-89
2022/06/28 09:47:57;;;;;;;21.65;16.15;;;;;;;34.38;31.21;99734.66;5035281;28;20038;-89
2022/06/28 09:50:25;;;;;;;4.55;2.88;;;;;;;34.31;31.98;99739.13;5037971;28;20032;-88
2022/06/28 09:52:52;;;;;;;3.33;2.03;;;;;;;34.05;33.59;99721.91;5042583;28;20924;-88
2022/06/28 09:55:19;;;;;;;2.40;1.65;;;;;;;34.16;31.90;99739.00;5046446;28;20037;-87
2022/06/28 09:57:47;;;;;;;1.75;1.25;;;;;;;34.14;32.09;99719.13;5045934;28;20764;-89
2022/06/28 10:00:16;;;;;;;2.08;1.50;;;;;;;34.29;31.15;99711.94;5046720;28;20114;-88
2022/06/28 10:02:42;;;;;;;2.67;1.60;;;;;;;34.60;31.69;99742.13;5045723;28;20059;-89
2022/06/28 10:05:10;;;;;;;3.95;2.42;;;;;;;34.51;31.10;99732.22;5044433;28;20114;-90
2022/06/28 10:07:37;;;;;;;2.72;1.55;;;;;;;34.55;31.57;99724.50;5045285;28;20777;-90
2022/06/28 10:10:10;;;;;;;3.35;2.13;;;;;;;34.48;30.67;99726.25;5044228;28;20033;-88
2022/06/28 10:15:23;;;;;;;1.77;1.30;;;;;;;33.72;31.46;99724.72;5047076;28;20048;-88
2022/06/28 10:18:25;;;;;;;2.35;1.65;;;;;;;33.68;32.72;99712.38;5045312;28;20055;-88
2022/06/28 10:20:51;;;;;;;2.53;1.45;;;;;;;33.61;31.76;99708.59;5027713;28;20031;-90
2022/06/28 10:23:37;;;;;;;1.58;1.40;;;;;;;33.49;31.74;99734.56;5046159;28;20123;-88
2022/06/28 10:26:05;;;;;;;2.53;1.80;;;;;;;33.50;32.07;99717.16;5043737;28;20047;-88
2022/06/28 10:28:40;;;;;;;1.83;1.20;;;;;;;33.31;33.10;99702.81;5046442;28;20098;-89
2022/06/28 10:31:23;;;;;;;2.35;1.58;;;;;;;33.64;32.94;99719.19;5046084;28;20115;-88
2022/06/28 10:33:50;;;;;;;1.52;1.08;;;;;;;33.65;32.04;99720.91;5050115;28;20112;-92
2022/06/28 10:36:18;;;;;;;3.58;1.60;;;;;;;33.55;32.95;99688.28;5050614;28;20040;-90
2022/06/28 10:39:06;;;;;;;3.00;1.60;;;;;;;33.54;32.82;99716.66;5046351;28;20083;-88
2022/06/28 10:41:43;;;;;;;2.80;1.75;;;;;;;33.14;33.34;99712.84;5044549;28;20419;-91
2022/06/28 10:44:15;;;;;;;2.80;1.38;;;;;;;33.08;32.00;99678.00;5028846;28;20034;-90
2022/06/28 10:46:41;;;;;;;2.38;1.50;;;;;;;33.36;33.04;99692.22;5035870;28;20498;-90
2022/06/28 10:49:14;;;;;;;2.63;0.95;;;;;;;33.37;33.49;99701.28;5039296;28;20037;-90
2022/06/28 10:52:11;;;;;;;2.30;1.40;;;;;;;33.55;35.17;99709.28;5041950;28;20036;-91
2022/06/28 10:54:38;;;;;;;1.27;1.10;;;;;;;33.49;35.96;99704.50;5035326;28;20274;-89
2022/06/28 10:57:21;;;;;;;3.30;1.42;;;;;;;33.18;36.50;99707.88;5033782;28;20029;-90
2022/06/28 10:59:49;;;;;;;1.75;1.35;;;;;;;33.06;36.38;99704.63;5044486;28;20040;-90
2022/06/28 11:02:16;;;;;;;2.30;1.55;;;;;;;32.56;35.95;99662.66;5038831;28;20033;-90
2022/06/28 11:04:41;;;;;;;1.38;1.02;;;;;;;32.46;37.00;99690.09;5030995;28;20095;-89
2022/06/28 11:07:21;;;;;;;1.42;1.10;;;;;;;32.33;36.04;99680.66;5037443;28;20045;-90
2022/06/28 11:09:58;;;;;;;2.05;1.55;;;;;;;32.42;35.62;99701.50;5037243;28;20119;-92
2022/06/28 11:12:30;;;;;;;2.03;1.35;;;;;;;32.84;36.77;99701.53;5039137;28;20039;-92
2022/06/28 11:15:08;;;;;;;1.55;1.30;;;;;;;32.87;36.12;99692.13;5043224;28;20462;-94
2022/06/28 11:17:40;;;;;;;2.30;1.55;;;;;;;32.86;34.13;99692.28;5046074;28;20029;-93
2022/06/28 11:20:11;;;;;;;2.90;1.65;;;;;;;32.88;35.45;99665.69;5043263;28;20837;-93
2022/06/28 11:22:48;;;;;;;2.58;1.48;;;;;;;32.91;36.16;99676.28;5040957;28;20044;-92
2022/06/28 11:25:19;;;;;;;2.45;1.70;;;;;;;32.57;36.96;99671.72;5038622;28;20029;-87
2022/06/28 11:28:09;;;;;;;2.78;1.83;;;;;;;32.21;35.79;99670.06;5037306;28;20041;-90
2022/06/28 11:30:42;;;;;;;2.30;1.50;;;;;;;31.78;35.39;99636.41;5038088;28;20018;-89
2022/06/28 11:33:10;;;;;;;3.17;0.90;;;;;;;32.17;35.46;99689.66;5037924;28;20037;-90
2022/06/28 11:35:36;;;;;;;2.35;1.50;;;;;;;32.20;35.76;99698.34;5044946;28;20052;-92
2022/06/28 11:38:06;;;;;;;3.80;1.15;;;;;;;32.21;35.91;99691.00;5042290;28;20542;-90
2022/06/28 11:40:49;;;;;;;2.00;1.60;;;;;;;31.52;38.29;99689.00;5046040;28;20098;-89
2022/06/28 11:43:18;;;;;;;5.63;1.35;;;;;;;30.99;40.67;99681.75;5048013;28;20039;-88
2022/06/28 11:45:51;;;;;;;1.35;0.80;;;;;;;30.53;41.96;99679.00;5049069;28;20044;-88